Pagrindinis puslapis
METAR-TAF:

METAR-TAF

Oro uostai :

Larnaka, Kipras

platuma: 34-53N, ilguma: 033-38E, Aukštis: 2 m

Dabartinis oras

Ataskaita buvo paskelbta 19 minutes, ne 23:00 UTC
Vėjas 4 kt iš Šiaurės Vakarų
Temperatūra 22°C
Drėgmė 83%
Slėgis 1010 hPa
Matomumas 10 km arba daugiau
nėra debesų žemiau 1500 m ir nėra kamuolinių lietaus debesų

METAR: LCLK 202300Z 32004KT CAVOK 22/19 Q1010 NOSIG

Laikas: 02:19 (23:19 UTC)

Prognozė

Ataskaita buvo paskelbta 5 valandos ir 49 minutes, ne 17:30 UTC
Prognozė galioja nuo 20 metu 18 UTC su 21 metu 18 UTC
Vėjas 7 kt iš Šiaurės Vakarų
Matomumas 10 km arba daugiau
Mažai debesys ne aukštis 1800 ft
Tapsmas
nuo 21 metu 08 UTC su 21 metu 12 UTC
Vėjas 12 kt iš Pietų
Tapsmas
nuo 21 metu 16 UTC su 21 metu 18 UTC
Vėjas 6 kt iš Vakarų/Šiaurės Vakarų

TAF: LCLK 201730Z 2018/2118 31007KT 9999 FEW018 BECMG 2108/2112 18012KT BECMG 2116/2118 30006KT

Orai ataskaitas ir orų prognozės (METAR, TAF).

turimą stotys yra geltonos ir raudonos taškus žemėlapyje.

Perkelti pele per norėdami pamatyti stoties vardą.

Tada spustelėkite, norėdami matyti oro stebėjimo ir prognozės.

Norėdami pakeisti žemėlapį: spustelėkite ant žalios mygtukų su juodo kryžiaus žemyn,; žalią mygtuką su brūkšneliu, jei norite nutolinti; arba žalių rodyklių gretimoms žemėlapius.


METAR-TAF: